Time;durP1;ratioP1;P1;durP2;ratioP2;P2;SDS_P1;SDS_P2;PMS_P1;PMS_P2;Temp;Humidity;BMP_temperature;BMP_pressure;BME280_temperature;BME280_humidity;BME280_pressure;Samples;Min_cycle;Max_cycle;Signal;HPM_P1;HPM_P2
2022/04/26 03:37:41;;;;;;;10.77;9.87;;;;;;;7.60;100.00;100793.44;5116202;28;20623;-68
2022/04/26 03:40:09;;;;;;;9.67;9.17;;;;;;;7.58;100.00;100795.25;5116479;28;20217;-68
2022/04/26 03:42:36;;;;;;;10.13;9.53;;;;;;;7.53;100.00;100799.72;5116086;28;20201;-68
2022/04/26 03:45:03;;;;;;;9.93;9.17;;;;;;;7.52;100.00;100792.81;5116410;28;20616;-68
2022/04/26 03:47:29;;;;;;;10.00;9.57;;;;;;;7.53;100.00;100802.31;5116049;28;20246;-68
2022/04/26 03:49:56;;;;;;;11.27;10.53;;;;;;;7.51;100.00;100801.53;5116290;28;20193;-68
2022/04/26 03:52:22;;;;;;;10.93;10.30;;;;;;;7.44;100.00;100803.44;5115974;28;20239;-68
2022/04/26 03:54:49;;;;;;;11.10;10.20;;;;;;;7.45;100.00;100805.13;5116227;28;20213;-68
2022/04/26 03:57:15;;;;;;;10.43;9.73;;;;;;;7.40;100.00;100802.66;5115819;28;20258;-68
2022/04/26 03:59:42;;;;;;;10.53;9.90;;;;;;;7.39;100.00;100807.91;5116137;28;20593;-68
2022/04/26 04:02:09;;;;;;;11.80;11.03;;;;;;;7.37;100.00;100809.69;5115745;28;20225;-68
2022/04/26 04:04:35;;;;;;;11.40;10.40;;;;;;;7.41;100.00;100814.75;5115931;28;20205;-68
2022/04/26 04:07:03;;;;;;;10.67;10.00;;;;;;;7.37;100.00;100818.38;5115009;28;20270;-68
2022/04/26 04:09:29;;;;;;;11.73;10.70;;;;;;;7.39;100.00;100813.97;5115675;28;20185;-68
2022/04/26 04:11:56;;;;;;;12.00;10.90;;;;;;;7.37;100.00;100818.38;5115554;28;20205;-68
2022/04/26 04:14:23;;;;;;;14.87;10.60;;;;;;;7.43;100.00;100825.16;5115510;28;20258;-68
2022/04/26 04:16:49;;;;;;;11.40;10.40;;;;;;;7.39;100.00;100821.78;5115763;28;20764;-68
2022/04/26 04:19:18;;;;;;;11.77;10.87;;;;;;;7.42;100.00;100829.50;5115438;28;20555;-68
2022/04/26 04:21:46;;;;;;;11.03;10.20;;;;;;;7.41;100.00;100826.94;5115216;28;20682;-68
2022/04/26 04:24:16;;;;;;;10.77;10.10;;;;;;;7.46;100.00;100827.69;5115323;28;20272;-68
2022/04/26 04:26:43;;;;;;;11.30;10.53;;;;;;;7.44;100.00;100832.94;5115471;28;20683;-69
2022/04/26 04:29:10;;;;;;;17.47;11.77;;;;;;;7.43;100.00;100833.00;5115795;28;20192;-69
2022/04/26 04:31:37;;;;;;;12.20;11.37;;;;;;;7.46;100.00;100832.88;5115294;28;20181;-69
2022/04/26 04:34:03;;;;;;;13.47;10.17;;;;;;;7.45;100.00;100839.84;5115427;28;20197;-68
2022/04/26 04:36:30;;;;;;;11.40;10.50;;;;;;;7.43;100.00;100836.44;5115031;28;20201;-68
2022/04/26 04:38:57;;;;;;;12.00;10.90;;;;;;;7.42;100.00;100839.06;5115277;28;20302;-67
2022/04/26 04:41:24;;;;;;;10.40;9.70;;;;;;;7.42;100.00;100846.88;5115202;28;20196;-67
2022/04/26 04:43:51;;;;;;;11.83;10.90;;;;;;;7.36;100.00;100850.53;5115262;28;20223;-68
2022/04/26 04:46:17;;;;;;;11.20;10.23;;;;;;;7.38;100.00;100850.47;5114884;28;20209;-68
2022/04/26 04:48:44;;;;;;;9.80;9.23;;;;;;;7.32;100.00;100853.22;5115107;28;20234;-68
2022/04/26 04:51:10;;;;;;;10.57;10.07;;;;;;;7.31;100.00;100864.56;5114787;28;20181;-68
2022/04/26 04:53:37;;;;;;;12.07;10.80;;;;;;;7.31;100.00;100862.81;5114745;28;20227;-68
2022/04/26 04:56:03;;;;;;;11.47;10.77;;;;;;;7.36;100.00;100860.94;5114627;28;20238;-68
2022/04/26 04:58:32;;;;;;;10.20;9.60;;;;;;;7.34;100.00;100870.53;5114895;28;20200;-68
2022/04/26 05:00:58;;;;;;;10.73;9.97;;;;;;;7.29;100.00;100874.16;5114869;28;20195;-68
2022/04/26 05:03:25;;;;;;;11.13;10.27;;;;;;;7.20;100.00;100875.22;5114819;28;20556;-67
2022/04/26 05:05:51;;;;;;;10.77;10.03;;;;;;;7.15;100.00;100871.91;5114807;28;20192;-67
2022/04/26 05:08:18;;;;;;;10.97;10.27;;;;;;;7.22;100.00;100875.22;5114487;28;20185;-67
2022/04/26 05:10:44;;;;;;;11.17;10.27;;;;;;;7.06;100.00;100874.72;5114423;28;20711;-68
2022/04/26 05:13:10;;;;;;;10.40;9.80;;;;;;;7.07;100.00;100884.22;5114665;28;20174;-68
2022/04/26 05:15:38;;;;;;;11.00;10.20;;;;;;;7.14;100.00;100886.66;5114866;28;20538;-68
2022/04/26 05:18:05;;;;;;;11.03;10.13;;;;;;;7.09;100.00;100887.66;5114234;28;20237;-68
2022/04/26 05:20:32;;;;;;;11.90;11.17;;;;;;;7.11;100.00;100885.88;5113943;28;20192;-68
2022/04/26 05:25:45;;;;;;;11.83;11.03;;;;;;;7.01;100.00;100890.47;5114517;28;20181;-68
2022/04/26 05:28:11;;;;;;;9.93;9.23;;;;;;;7.03;100.00;100896.47;5114039;28;20205;-68
2022/04/26 05:30:38;;;;;;;11.73;10.90;;;;;;;7.06;100.00;100893.78;5113986;28;20198;-68
2022/04/26 05:33:04;;;;;;;11.83;10.73;;;;;;;7.08;100.00;100898.97;5114321;28;20193;-68
2022/04/26 05:35:32;;;;;;;12.20;11.00;;;;;;;7.12;100.00;100893.63;5113953;28;20547;-68
2022/04/26 05:37:59;;;;;;;14.13;10.93;;;;;;;7.22;100.00;100896.91;5113784;28;20223;-68
2022/04/26 05:40:25;;;;;;;10.93;10.13;;;;;;;7.20;100.00;100906.47;5114159;28;20185;-68
2022/04/26 05:42:51;;;;;;;11.87;10.93;;;;;;;7.22;100.00;100898.66;5114369;28;20226;-68
2022/04/26 05:45:18;;;;;;;13.07;11.83;;;;;;;7.23;100.00;100901.22;5113899;28;20189;-68
2022/04/26 05:47:45;;;;;;;13.23;11.07;;;;;;;7.24;100.00;100899.47;5114010;28;20606;-68
2022/04/26 05:50:12;;;;;;;11.43;10.63;;;;;;;7.26;100.00;100895.91;5113851;28;20189;-68
2022/04/26 05:52:39;;;;;;;12.07;10.90;;;;;;;7.27;100.00;100896.75;5113995;28;20271;-68
2022/04/26 05:55:07;;;;;;;11.97;10.87;;;;;;;7.40;100.00;100904.22;5114075;28;20181;-68
2022/04/26 05:57:39;;;;;;;12.57;11.33;;;;;;;7.44;100.00;100908.47;5113945;28;20239;-68
2022/04/26 06:00:07;;;;;;;11.57;10.57;;;;;;;7.48;100.00;100908.41;5113757;28;20181;-68
2022/04/26 06:02:38;;;;;;;13.57;11.90;;;;;;;7.49;100.00;100912.69;5113611;28;20576;-68
2022/04/26 06:05:05;;;;;;;12.27;11.47;;;;;;;7.40;100.00;100919.00;5113654;28;20185;-68
2022/04/26 06:07:31;;;;;;;12.43;11.47;;;;;;;7.51;100.00;100922.22;5113857;28;20232;-68
2022/04/26 06:09:58;;;;;;;11.13;10.20;;;;;;;7.46;100.00;100918.84;5114113;28;20186;-68
2022/04/26 06:12:26;;;;;;;13.30;11.37;;;;;;;7.54;100.00;100918.66;5114116;28;20177;-68
2022/04/26 06:14:53;;;;;;;13.30;12.10;;;;;;;7.60;100.00;100927.19;5113575;28;20177;-68
2022/04/26 06:17:23;;;;;;;10.93;10.33;;;;;;;7.58;100.00;100928.13;5113441;28;20691;-68
2022/04/26 06:19:50;;;;;;;10.57;10.07;;;;;;;7.62;100.00;100914.09;5113520;28;20193;-68
2022/04/26 06:22:17;;;;;;;12.17;10.93;;;;;;;7.64;100.00;100928.81;5113802;28;20201;-68
2022/04/26 06:24:43;;;;;;;12.20;11.30;;;;;;;7.63;100.00;100926.22;5113763;28;20764;-68
2022/04/26 06:27:10;;;;;;;12.40;11.47;;;;;;;7.68;100.00;100930.44;5113465;28;20205;-68
2022/04/26 06:29:37;;;;;;;13.70;11.20;;;;;;;7.75;100.00;100936.34;5113699;28;20189;-68
2022/04/26 06:32:04;;;;;;;11.33;10.33;;;;;;;7.80;100.00;100933.63;5117392;28;20181;-68
2022/04/26 06:34:31;;;;;;;12.47;11.63;;;;;;;7.87;100.00;100936.03;5117753;28;20227;-68
2022/04/26 06:36:57;;;;;;;12.27;10.70;;;;;;;7.94;100.00;100934.13;5117498;28;20207;-68
2022/04/26 06:39:24;;;;;;;12.30;11.47;;;;;;;7.88;100.00;100932.53;5117447;28;20186;-68
2022/04/26 06:41:50;;;;;;;12.57;11.67;;;;;;;7.89;100.00;100944.66;5117570;28;20193;-68
2022/04/26 06:44:17;;;;;;;13.00;11.63;;;;;;;7.91;100.00;100942.84;5117506;28;20651;-68
2022/04/26 06:46:43;;;;;;;16.63;11.93;;;;;;;7.88;100.00;100942.09;5117569;28;20523;-68
2022/04/26 06:49:10;;;;;;;13.33;12.17;;;;;;;7.90;100.00;100942.91;5117124;28;20189;-68
2022/04/26 06:51:44;;;;;;;16.80;11.87;;;;;;;7.99;100.00;100950.47;5117141;28;20234;-68
2022/04/26 06:54:11;;;;;;;18.93;13.60;;;;;;;8.09;100.00;100945.88;5117344;28;20223;-68
2022/04/26 06:56:40;;;;;;;13.60;12.20;;;;;;;8.15;100.00;100945.72;5116974;28;20201;-68
2022/04/26 06:59:07;;;;;;;16.50;12.90;;;;;;;8.11;100.00;100942.31;5116910;28;20190;-68
2022/04/26 07:01:33;;;;;;;19.90;13.47;;;;;;;8.13;100.00;100942.28;5117480;28;20185;-68
2022/04/26 07:04:08;;;;;;;14.67;13.37;;;;;;;8.14;100.00;100947.44;5117441;28;20197;-68
2022/04/26 07:06:37;;;;;;;14.53;12.40;;;;;;;8.24;100.00;100951.53;5117018;28;20206;-68
2022/04/26 07:09:04;;;;;;;15.57;13.83;;;;;;;8.35;100.00;100943.41;5116764;28;20213;-68
2022/04/26 07:11:31;;;;;;;15.57;13.67;;;;;;;8.36;100.00;100950.38;5116988;28;20186;-68
2022/04/26 07:13:57;;;;;;;18.73;13.93;;;;;;;8.40;100.00;100943.28;5116964;28;20185;-68
2022/04/26 07:16:24;;;;;;;13.53;12.17;;;;;;;8.52;100.00;100951.63;5116808;28;20241;-68
2022/04/26 07:18:51;;;;;;;15.17;13.93;;;;;;;8.54;100.00;100947.22;5116902;28;20248;-68
2022/04/26 07:21:18;;;;;;;15.80;13.80;;;;;;;8.60;100.00;100955.78;5116553;28;20188;-68
2022/04/26 07:23:44;;;;;;;16.90;13.80;;;;;;;8.67;100.00;100954.69;5116446;28;20203;-68
2022/04/26 07:26:10;;;;;;;14.30;12.83;;;;;;;8.70;100.00;100955.44;5116390;28;20231;-68
2022/04/26 07:28:37;;;;;;;14.27;12.77;;;;;;;8.75;100.00;100958.78;5116656;28;20191;-68
2022/04/26 07:31:04;;;;;;;14.43;13.10;;;;;;;8.86;100.00;100952.38;5116603;28;20195;-68
2022/04/26 07:36:16;;;;;;;14.50;12.83;;;;;;;8.92;100.00;100960.88;5116479;28;20208;-67
2022/04/26 07:38:43;;;;;;;15.10;13.60;;;;;;;8.93;100.00;100957.38;5098282;28;20221;-67
2022/04/26 07:41:11;;;;;;;17.77;14.73;;;;;;;8.95;100.00;100959.94;5115962;28;20209;-67
2022/04/26 07:43:37;;;;;;;13.77;12.67;;;;;;;8.99;100.00;100957.16;5115360;28;20621;-67
2022/04/26 07:46:04;;;;;;;15.03;13.63;;;;;;;8.97;100.00;100969.44;5116670;28;20276;-68
2022/04/26 07:48:31;;;;;;;16.13;13.73;;;;;;;8.97;100.00;100969.44;5116578;28;20534;-67
2022/04/26 07:50:58;;;;;;;17.00;15.20;;;;;;;9.03;100.00;100974.47;5116014;28;20595;-67
2022/04/26 07:53:26;;;;;;;14.97;13.47;;;;;;;9.02;100.00;100972.75;5116480;28;20638;-67
2022/04/26 07:55:53;;;;;;;16.60;15.10;;;;;;;9.09;100.00;100979.50;5115848;28;20216;-67
2022/04/26 07:58:19;;;;;;;18.00;16.30;;;;;;;9.22;100.00;100985.22;5115866;28;20180;-67
2022/04/26 08:00:46;;;;;;;17.80;16.00;;;;;;;9.28;100.00;100974.53;5115801;28;20592;-67
2022/04/26 08:03:13;;;;;;;23.43;18.07;;;;;;;9.24;100.00;100982.53;5115878;28;20242;-68
2022/04/26 08:05:40;;;;;;;20.73;18.53;;;;;;;9.29;100.00;100984.13;5115939;28;20654;-68
2022/04/26 08:08:07;;;;;;;27.17;20.87;;;;;;;9.34;100.00;100990.03;5115862;28;20212;-69
2022/04/26 08:10:35;;;;;;;27.43;21.57;;;;;;;9.43;100.00;100983.69;5115508;28;20213;-67
2022/04/26 08:13:01;;;;;;;20.83;18.83;;;;;;;9.45;100.00;100989.69;5115637;28;20185;-67
2022/04/26 08:15:28;;;;;;;23.23;20.40;;;;;;;9.64;100.00;100993.44;5115583;28;20187;-67
2022/04/26 08:17:54;;;;;;;25.40;21.13;;;;;;;9.87;100.00;100987.44;5115904;28;20241;-67
2022/04/26 08:20:22;;;;;;;24.60;19.30;;;;;;;10.03;100.00;100999.97;5116014;28;20192;-67
2022/04/26 08:22:48;;;;;;;26.00;21.87;;;;;;;10.04;100.00;100999.91;5115557;28;20201;-67
2022/04/26 08:28:01;;;;;;;24.97;19.90;;;;;;;9.88;100.00;101009.19;5115270;28;20569;-68
2022/04/26 08:30:28;;;;;;;28.60;20.13;;;;;;;9.88;100.00;101004.81;5116016;28;20196;-68
2022/04/26 08:32:54;;;;;;;22.33;19.97;;;;;;;9.95;100.00;101008.09;5115460;28;20194;-68
2022/04/26 08:35:24;;;;;;;27.67;20.83;;;;;;;10.00;100.00;101013.16;5115664;28;20185;-68
2022/04/26 08:38:10;;;;;;;26.43;20.47;;;;;;;10.05;100.00;101009.47;5114855;28;20217;-67
2022/04/26 08:40:36;;;;;;;23.60;20.23;;;;;;;10.08;100.00;101012.00;5114998;28;20662;-67
2022/04/26 08:43:03;;;;;;;21.50;19.30;;;;;;;10.36;100.00;101003.22;5115173;28;20601;-68
2022/04/26 08:45:30;;;;;;;24.47;19.23;;;;;;;10.54;100.00;101002.53;5115220;28;20189;-67
2022/04/26 08:51:00;;;;;;;22.40;20.10;;;;;;;10.77;100.00;101008.69;5115154;28;20189;-67
2022/04/26 08:53:28;;;;;;;25.97;19.33;;;;;;;10.86;99.96;101008.31;5114873;28;20238;-68
2022/04/26 08:56:00;;;;;;;21.70;18.83;;;;;;;10.92;98.76;101015.97;5114913;28;20199;-68
2022/04/26 08:58:31;;;;;;;20.53;18.43;;;;;;;10.91;99.29;101009.88;5114899;28;20222;-67
2022/04/26 09:01:05;;;;;;;32.60;21.30;;;;;;;10.83;98.88;101016.31;5114575;28;20173;-68
2022/04/26 09:03:54;;;;;;;21.53;19.33;;;;;;;10.82;99.16;101019.84;5114798;28;20564;-67
2022/04/26 09:06:21;;;;;;;24.30;20.20;;;;;;;10.85;99.25;101025.81;5114734;28;20215;-68
2022/04/26 09:08:50;;;;;;;20.63;18.47;;;;;;;10.89;98.21;101029.19;5114717;28;20217;-67
2022/04/26 09:11:21;;;;;;;22.47;19.20;;;;;;;10.86;97.46;101030.16;5114460;28;20210;-68
2022/04/26 09:13:47;;;;;;;21.07;18.93;;;;;;;10.95;97.96;101036.81;5114374;28;20213;-68
2022/04/26 09:16:22;;;;;;;22.07;17.97;;;;;;;10.91;98.39;101043.94;5114464;28;20216;-67
2022/04/26 09:18:59;;;;;;;21.90;19.40;;;;;;;11.00;98.08;101037.47;5114583;28;20188;-67
2022/04/26 09:21:28;;;;;;;22.97;20.50;;;;;;;10.98;98.27;101034.91;5114244;28;20544;-67
2022/04/26 09:23:57;;;;;;;22.07;18.73;;;;;;;10.97;97.88;101040.22;5114133;28;20872;-67
2022/04/26 09:26:25;;;;;;;22.07;19.87;;;;;;;10.92;98.02;101044.78;5114080;28;20213;-68
2022/04/26 09:28:52;;;;;;;19.40;17.70;;;;;;;10.96;98.22;101047.22;5114098;28;20189;-67
2022/04/26 09:31:23;;;;;;;22.50;18.90;;;;;;;10.96;98.44;101054.25;5114319;28;20188;-68
2022/04/26 09:33:57;;;;;;;17.83;16.33;;;;;;;10.96;97.84;101049.84;5114314;28;20585;-68
2022/04/26 09:36:25;;;;;;;23.13;16.80;;;;;;;11.03;96.37;101045.25;5114268;28;20205;-68
2022/04/26 09:38:55;;;;;;;22.47;17.40;;;;;;;11.11;95.98;101061.53;5114021;28;20238;-68
2022/04/26 09:41:23;;;;;;;18.37;16.57;;;;;;;11.17;95.61;101058.66;5114418;28;20540;-68
2022/04/26 09:44:09;;;;;;;18.87;17.03;;;;;;;11.26;94.29;101066.19;5113788;28;20258;-67
2022/04/26 09:46:46;;;;;;;19.60;17.73;;;;;;;11.24;94.34;101072.41;5114031;28;20219;-68
2022/04/26 09:49:17;;;;;;;19.60;17.53;;;;;;;11.30;93.36;101065.16;5113878;28;20234;-68
2022/04/26 09:51:46;;;;;;;19.20;17.17;;;;;;;11.47;93.68;101068.88;5114339;28;20165;-67
2022/04/26 09:54:13;;;;;;;19.53;17.57;;;;;;;11.70;91.55;101076.69;5114083;28;20178;-67
2022/04/26 09:56:43;;;;;;;21.43;18.63;;;;;;;11.73;94.81;101073.94;5113957;28;20213;-68
2022/04/26 09:59:38;;;;;;;20.27;18.00;;;;;;;11.83;94.63;101072.69;5114595;28;20170;-67
2022/04/26 10:02:08;;;;;;;20.33;18.13;;;;;;;12.13;94.52;101069.69;5109329;28;20715;-67
2022/04/26 10:04:38;;;;;;;20.23;18.30;;;;;;;12.29;91.01;101065.53;5113461;28;20634;-67
2022/04/26 10:07:17;;;;;;;20.90;17.80;;;;;;;12.50;93.05;101060.25;5113535;28;20212;-68
2022/04/26 10:09:48;;;;;;;21.83;18.73;;;;;;;12.70;93.53;101062.00;5114184;28;20176;-67
2022/04/26 10:12:16;;;;;;;19.93;18.03;;;;;;;12.85;92.96;101058.69;5113926;28;20650;-67
2022/04/26 10:14:43;;;;;;;23.20;18.40;;;;;;;12.90;88.93;101069.84;5113854;28;20536;-67
2022/04/26 10:17:10;;;;;;;21.87;18.97;;;;;;;12.79;93.18;101065.09;5114063;28;20220;-67
2022/04/26 10:19:39;;;;;;;20.30;18.13;;;;;;;12.74;92.57;101069.69;5113669;28;20200;-68
2022/04/26 10:22:08;;;;;;;25.17;17.87;;;;;;;12.71;93.15;101061.91;5113650;28;20192;-67
2022/04/26 10:24:34;;;;;;;19.87;17.97;;;;;;;12.74;92.50;101067.06;5113361;28;20238;-67
2022/04/26 10:27:22;;;;;;;30.30;19.63;;;;;;;12.62;92.79;101070.22;5113359;28;20205;-68
2022/04/26 10:29:49;;;;;;;19.93;18.20;;;;;;;12.73;92.24;101075.00;5113745;28;20181;-67
2022/04/26 10:32:34;;;;;;;21.83;19.50;;;;;;;12.82;91.50;101067.56;5113381;28;20193;-68
2022/04/26 10:35:25;;;;;;;21.27;19.03;;;;;;;12.85;90.78;101070.03;5113686;28;20173;-68
2022/04/26 10:38:08;;;;;;;20.50;18.40;;;;;;;12.89;91.00;101070.78;5113429;28;20621;-67
2022/04/26 10:41:03;;;;;;;21.23;18.50;;;;;;;13.07;92.01;101069.06;5113616;28;20173;-68
2022/04/26 10:43:30;;;;;;;22.17;19.80;;;;;;;13.17;92.78;101075.63;5102287;28;20213;-68
2022/04/26 10:46:09;;;;;;;22.80;20.40;;;;;;;13.11;89.97;101074.13;5113179;28;20553;-68
2022/04/26 10:48:35;;;;;;;21.47;19.50;;;;;;;13.14;89.47;101081.00;5113575;28;20181;-68
2022/04/26 10:51:39;;;;;;;22.13;19.93;;;;;;;13.10;88.75;101082.09;5113488;28;20674;-68
2022/04/26 10:54:06;;;;;;;23.43;21.17;;;;;;;12.98;88.97;101075.59;5108890;28;20239;-68
2022/04/26 10:56:34;;;;;;;25.13;21.40;;;;;;;12.95;90.15;101081.88;5112722;28;20215;-68
2022/04/26 10:59:01;;;;;;;23.53;21.13;;;;;;;13.06;89.97;101078.72;5112286;28;20607;-68
2022/04/26 11:01:28;;;;;;;22.97;20.67;;;;;;;13.14;90.23;101075.75;5112379;28;20680;-68
2022/04/26 11:03:56;;;;;;;23.80;21.30;;;;;;;13.20;90.49;101081.59;5110411;28;20296;-68
2022/04/26 11:06:34;;;;;;;24.80;22.20;;;;;;;13.27;89.86;101083.97;5095966;28;20219;-68
2022/04/26 11:09:06;;;;;;;25.40;21.93;;;;;;;13.29;89.05;101085.63;5113075;28;20229;-68
2022/04/26 11:11:47;;;;;;;24.37;21.80;;;;;;;13.28;88.75;101088.28;5113091;28;20702;-68
2022/04/26 11:14:21;;;;;;;24.93;22.33;;;;;;;13.16;87.95;101089.69;5112904;28;20184;-68
2022/04/26 11:16:55;;;;;;;23.13;20.93;;;;;;;13.21;87.86;101090.34;5113191;28;20580;-68
2022/04/26 11:19:31;;;;;;;25.93;23.03;;;;;;;13.24;87.58;101098.13;5116586;28;20185;-68
2022/04/26 11:22:09;;;;;;;26.60;23.37;;;;;;;13.23;88.13;101099.03;5115128;28;20193;-68
2022/04/26 11:30:10;;;;;;;22.97;20.67;;;;;;;13.35;84.74;101103.72;5114946;28;20272;-68
2022/04/26 11:32:42;;;;;;;22.97;20.63;;;;;;;13.60;85.94;101095.53;5110823;28;20224;-68
2022/04/26 11:35:16;;;;;;;24.67;19.43;;;;;;;13.86;87.69;101099.53;5115528;28;20238;-67
2022/04/26 11:37:47;;;;;;;22.83;20.57;;;;;;;13.88;85.28;101102.09;5116132;28;20220;-68
2022/04/26 11:40:41;;;;;;;23.07;19.27;;;;;;;13.92;86.92;101107.13;5114393;28;20527;-69
2022/04/26 11:43:17;;;;;;;31.03;22.77;;;;;;;13.89;84.75;101111.69;5110632;28;20216;-69
2022/04/26 11:45:49;;;;;;;21.97;19.63;;;;;;;13.84;84.09;101105.78;5114861;28;20223;-67
2022/04/26 11:48:17;;;;;;;22.83;20.47;;;;;;;13.81;86.60;101109.44;5116285;28;20576;-68
2022/04/26 11:50:45;;;;;;;23.93;20.93;;;;;;;13.71;84.36;101118.69;5097889;28;20604;-68
2022/04/26 11:53:14;;;;;;;22.43;20.40;;;;;;;13.71;81.52;101110.78;5115966;28;20228;-67
2022/04/26 11:55:43;;;;;;;26.30;21.83;;;;;;;13.66;81.78;101123.34;5116529;28;20177;-68
2022/04/26 11:58:15;;;;;;;22.70;20.47;;;;;;;13.61;81.75;101112.16;5116100;28;20253;-67
2022/04/26 12:01:02;;;;;;;26.20;19.90;;;;;;;13.84;83.26;101119.81;5116112;28;20177;-68
2022/04/26 12:03:41;;;;;;;19.63;17.87;;;;;;;13.76;80.51;101122.81;5116037;28;20204;-68
2022/04/26 12:06:10;;;;;;;22.57;20.23;;;;;;;13.81;79.50;101119.97;5115730;28;20177;-68
2022/04/26 12:08:41;;;;;;;21.00;19.13;;;;;;;13.83;75.90;101120.72;5115647;28;20189;-68
2022/04/26 12:11:18;;;;;;;20.77;18.77;;;;;;;13.90;77.65;101113.41;5115908;28;20178;-67
2022/04/26 12:13:45;;;;;;;22.37;20.17;;;;;;;14.13;76.75;101118.38;5116094;28;20526;-68
2022/04/26 12:16:21;;;;;;;21.77;19.57;;;;;;;14.10;73.85;101118.53;5116216;28;20189;-68
2022/04/26 12:18:52;;;;;;;21.00;18.77;;;;;;;14.13;77.02;101109.63;5116031;28;20176;-68
2022/04/26 12:21:20;;;;;;;23.70;20.07;;;;;;;14.27;80.57;101112.41;5115455;28;20201;-68
2022/04/26 12:23:46;;;;;;;23.63;19.67;;;;;;;14.50;79.08;101119.19;5115321;28;20247;-68
2022/04/26 12:26:14;;;;;;;21.60;19.60;;;;;;;14.58;76.91;101115.25;5115312;28;20586;-67
2022/04/26 12:28:49;;;;;;;20.77;18.83;;;;;;;14.73;78.35;101115.38;5115206;28;20189;-68
2022/04/26 12:31:25;;;;;;;20.53;18.67;;;;;;;14.85;75.14;101109.44;5115471;28;20587;-67
2022/04/26 12:34:14;;;;;;;19.97;18.17;;;;;;;14.84;78.16;101108.59;5115449;28;20202;-68
2022/04/26 12:37:02;;;;;;;22.30;20.07;;;;;;;15.02;76.15;101096.25;5115279;28;20201;-68
2022/04/26 12:39:41;;;;;;;20.47;18.47;;;;;;;15.08;77.25;101106.47;5115392;28;20197;-67
2022/04/26 12:42:12;;;;;;;20.73;18.53;;;;;;;15.09;75.50;101102.88;5115054;28;20226;-67
2022/04/26 12:44:52;;;;;;;19.93;18.13;;;;;;;14.91;74.09;101117.03;5115144;28;20194;-67
2022/04/26 12:52:59;;;;;;;21.97;15.87;;;;;;;14.90;78.31;101112.69;5115021;28;20177;-68
2022/04/26 12:55:36;;;;;;;17.17;15.87;;;;;;;14.94;77.08;101121.31;5114710;28;20214;-67
2022/04/26 12:58:05;;;;;;;20.50;17.77;;;;;;;14.84;78.26;101110.38;5114724;28;20690;-67
2022/04/26 13:00:33;;;;;;;18.27;16.60;;;;;;;14.75;76.95;101111.72;5114985;28;20224;-69
2022/04/26 13:03:03;;;;;;;18.30;16.67;;;;;;;14.66;78.94;101117.50;5114621;28;20667;-68
2022/04/26 13:05:41;;;;;;;18.63;17.07;;;;;;;14.53;76.49;101113.78;5115098;28;20199;-68
2022/04/26 13:08:09;;;;;;;19.90;17.97;;;;;;;14.44;75.69;101125.63;5114983;28;20541;-68
2022/04/26 13:10:36;;;;;;;17.53;15.83;;;;;;;14.47;72.90;101122.84;5114525;28;20205;-68
2022/04/26 13:13:03;;;;;;;17.53;15.90;;;;;;;14.62;75.07;101120.34;5115245;28;20226;-68
2022/04/26 13:15:29;;;;;;;16.83;15.43;;;;;;;14.59;75.66;101121.38;5114631;28;20264;-67
2022/04/26 13:17:57;;;;;;;19.03;17.13;;;;;;;14.46;77.20;101128.19;5114289;28;20209;-67
2022/04/26 13:20:24;;;;;;;17.10;15.43;;;;;;;14.49;77.42;101128.03;5114280;28;20193;-68
2022/04/26 13:22:51;;;;;;;16.57;15.23;;;;;;;14.69;77.73;101124.38;5114187;28;20189;-68
2022/04/26 13:25:17;;;;;;;16.73;15.03;;;;;;;14.70;75.29;101126.06;5114290;28;20674;-68
2022/04/26 13:27:47;;;;;;;16.43;14.90;;;;;;;14.95;76.96;101129.16;5114237;28;20254;-68
2022/04/26 13:30:14;;;;;;;16.43;14.87;;;;;;;14.83;73.43;101121.88;5114359;28;20230;-68
2022/04/26 13:32:42;;;;;;;15.23;14.07;;;;;;;14.62;73.56;101130.91;5114175;28;20185;-68
2022/04/26 13:35:10;;;;;;;16.00;14.40;;;;;;;14.66;75.94;101127.19;5114069;28;20205;-68
2022/04/26 13:37:38;;;;;;;15.43;14.17;;;;;;;14.57;74.75;101136.38;5095493;28;20248;-68
2022/04/26 13:40:06;;;;;;;16.90;15.43;;;;;;;14.57;78.76;101126.72;5113272;28;20177;-67
2022/04/26 13:42:35;;;;;;;14.00;13.17;;;;;;;14.63;76.15;101135.22;5114565;28;20177;-67
2022/04/26 13:45:02;;;;;;;15.17;14.07;;;;;;;14.61;75.59;101131.81;5113895;28;20683;-67
2022/04/26 13:47:29;;;;;;;15.20;13.80;;;;;;;14.59;71.24;101135.41;5113852;28;20247;-68
2022/04/26 13:49:56;;;;;;;14.00;12.97;;;;;;;14.61;72.20;101137.94;5113807;28;20181;-68
2022/04/26 13:52:23;;;;;;;14.43;13.33;;;;;;;14.56;72.72;101135.53;5113911;28;20216;-68
2022/04/26 13:54:50;;;;;;;15.10;14.07;;;;;;;14.73;74.58;101137.31;5114127;28;20216;-68
2022/04/26 13:57:17;;;;;;;14.10;12.90;;;;;;;14.86;73.55;101137.53;5114329;28;20561;-67
2022/04/26 13:59:45;;;;;;;15.80;14.43;;;;;;;14.76;71.69;101137.16;5113672;28;20239;-68
2022/04/26 14:02:12;;;;;;;14.60;13.57;;;;;;;14.48;71.28;101140.34;5113768;28;20177;-69
2022/04/26 14:04:39;;;;;;;13.90;13.00;;;;;;;14.43;72.44;101134.44;5113596;28;20205;-69
2022/04/26 14:07:06;;;;;;;14.17;13.20;;;;;;;14.40;71.84;101137.22;5113630;28;20213;-68
2022/04/26 14:09:33;;;;;;;14.67;13.30;;;;;;;14.50;72.59;101135.00;5113744;28;20189;-68
2022/04/26 14:12:00;;;;;;;16.23;14.60;;;;;;;14.54;72.59;101141.81;5113745;28;20181;-68
2022/04/26 14:22:45;;;;;;;14.00;13.13;;;;;;;14.53;71.25;101151.53;5113879;28;20173;-67
2022/04/26 14:25:13;;;;;;;11.93;11.33;;;;;;;14.50;69.05;101137.63;5114042;28;20258;-67
2022/04/26 14:27:43;;;;;;;14.40;13.40;;;;;;;14.49;69.50;101144.69;5113361;28;20755;-67
2022/04/26 14:30:11;;;;;;;13.13;11.87;;;;;;;14.48;70.18;101145.63;5113354;28;20217;-68
2022/04/26 14:32:58;;;;;;;13.63;12.60;;;;;;;14.41;72.78;101149.47;5113703;28;20191;-68
2022/04/26 14:35:27;;;;;;;13.83;12.93;;;;;;;14.42;72.30;101158.22;5113303;28;20655;-68
2022/04/26 14:37:53;;;;;;;11.93;10.97;;;;;;;14.39;69.01;101146.06;5113563;28;20216;-67
2022/04/26 14:40:20;;;;;;;11.67;11.10;;;;;;;14.37;70.11;101154.97;5113616;28;20617;-67
2022/04/26 14:42:47;;;;;;;13.77;12.43;;;;;;;14.44;72.25;101159.88;5113353;28;20189;-68
2022/04/26 14:45:13;;;;;;;13.70;12.50;;;;;;;14.56;70.83;101153.97;5113730;28;20205;-67
2022/04/26 14:47:40;;;;;;;13.27;11.97;;;;;;;14.79;71.25;101151.97;5113518;28;20295;-68
2022/04/26 14:50:09;;;;;;;12.47;11.47;;;;;;;14.83;70.31;101150.88;5113262;28;20580;-68
2022/04/26 14:52:37;;;;;;;12.70;11.57;;;;;;;14.82;69.61;101150.03;5116236;28;20681;-68
2022/04/26 14:55:05;;;;;;;11.67;10.93;;;;;;;14.84;69.80;101161.31;5117016;28;20189;-68
2022/04/26 14:57:31;;;;;;;10.80;10.37;;;;;;;14.75;69.74;101161.81;5117293;28;20617;-68
2022/04/26 14:59:57;;;;;;;11.83;11.13;;;;;;;14.69;68.86;101156.84;5117709;28;20208;-68
2022/04/26 15:02:24;;;;;;;11.67;11.07;;;;;;;14.66;68.71;101164.94;5117003;28;20222;-68
2022/04/26 15:04:51;;;;;;;14.13;11.40;;;;;;;14.53;69.22;101164.69;5116857;28;20220;-68
2022/04/26 15:07:18;;;;;;;10.77;10.07;;;;;;;14.35;70.22;101152.41;5116989;28;20248;-67
2022/04/26 15:09:51;;;;;;;11.13;10.47;;;;;;;14.30;70.38;101159.69;5117131;28;20192;-67
2022/04/26 15:17:49;;;;;;;9.33;9.03;;;;;;;14.26;71.99;101158.13;5116611;28;20221;-68
2022/04/26 15:20:18;;;;;;;11.13;10.43;;;;;;;14.21;70.39;101155.72;5116987;28;20205;-67
2022/04/26 15:22:46;;;;;;;11.90;11.10;;;;;;;14.27;71.04;101154.56;5116881;28;20177;-67
2022/04/26 15:25:13;;;;;;;10.77;10.00;;;;;;;14.16;71.40;101157.75;5116495;28;20295;-67
2022/04/26 15:27:40;;;;;;;10.97;10.30;;;;;;;14.14;72.48;101158.72;5099333;28;20197;-67
2022/04/26 15:30:09;;;;;;;10.63;10.03;;;;;;;14.09;70.19;101168.66;5116422;28;20199;-68
2022/04/26 15:32:36;;;;;;;11.13;10.67;;;;;;;14.23;70.29;101174.09;5116440;28;20209;-68